createdAt,value
2022-12-29T00:00:18.027Z,13.31
2022-12-29T00:02:44.824Z,13.32
2022-12-29T00:05:11.490Z,13.20
2022-12-29T00:07:38.320Z,13.21
2022-12-29T00:10:05.223Z,13.27
2022-12-29T00:12:51.768Z,13.32
2022-12-29T00:15:37.210Z,13.32
2022-12-29T00:18:03.950Z,13.23
2022-12-29T00:20:49.137Z,13.22
2022-12-29T00:23:34.389Z,13.23
2022-12-29T00:26:22.128Z,13.07
2022-12-29T00:29:07.394Z,13.18
2022-12-29T00:31:52.828Z,13.16
2022-12-29T00:34:38.037Z,13.12
2022-12-29T00:37:04.714Z,13.06
2022-12-29T00:39:49.743Z,13.11
2022-12-29T00:42:39.604Z,13.13
2022-12-29T00:45:07.106Z,13.08
2022-12-29T00:47:33.827Z,13.11
2022-12-29T00:50:00.869Z,13.15
2022-12-29T00:52:27.851Z,13.16
2022-12-29T00:54:54.689Z,13.18
2022-12-29T00:57:21.409Z,13.03
2022-12-29T00:59:48.133Z,13.15
2022-12-29T01:02:16.494Z,13.16
2022-12-29T01:04:43.513Z,13.09
2022-12-29T01:07:10.085Z,13.11
2022-12-29T01:09:56.204Z,13.13
2022-12-29T01:12:41.540Z,13.15
2022-12-29T01:15:11.297Z,13.11
2022-12-29T01:17:38.082Z,12.98
2022-12-29T01:20:05.130Z,12.99
2022-12-29T01:22:31.934Z,13.03
2022-12-29T01:24:58.729Z,13.06
2022-12-29T01:27:25.393Z,13.07
2022-12-29T01:29:52.000Z,12.90
2022-12-29T01:32:18.734Z,12.95
2022-12-29T01:34:45.448Z,12.89
2022-12-29T01:37:12.631Z,12.84
2022-12-29T01:39:39.399Z,12.91
2022-12-29T01:42:17.293Z,12.90
2022-12-29T01:45:04.586Z,12.89
2022-12-29T01:47:39.848Z,12.91
2022-12-29T01:50:10.734Z,12.83
2022-12-29T01:52:39.648Z,12.71
2022-12-29T01:55:06.838Z,12.71
2022-12-29T01:57:35.572Z,12.73
2022-12-29T02:00:06.690Z,12.62
2022-12-29T02:02:39.958Z,12.72
2022-12-29T02:05:11.538Z,12.62
2022-12-29T02:07:38.726Z,12.68
2022-12-29T02:10:05.833Z,12.75
2022-12-29T02:12:32.527Z,12.59
2022-12-29T02:15:01.313Z,12.58
2022-12-29T02:17:34.547Z,12.48
2022-12-29T02:20:21.501Z,12.44
2022-12-29T02:22:54.282Z,12.35
2022-12-29T02:25:30.221Z,12.39
2022-12-29T02:28:03.590Z,12.31
2022-12-29T02:30:35.266Z,12.39
2022-12-29T02:33:10.686Z,12.48
2022-12-29T02:35:42.879Z,12.45
2022-12-29T02:38:20.207Z,12.21
2022-12-29T02:41:14.158Z,12.39
2022-12-29T02:43:48.435Z,12.36
2022-12-29T02:46:28.818Z,12.26
2022-12-29T02:49:15.125Z,12.37
2022-12-29T02:51:49.410Z,12.35
2022-12-29T02:54:38.227Z,12.47
2022-12-29T02:57:30.015Z,12.47
2022-12-29T02:59:56.835Z,12.49
2022-12-29T03:02:26.494Z,12.52
2022-12-29T03:04:59.521Z,12.50
2022-12-29T03:07:32.145Z,12.55
2022-12-29T03:10:01.490Z,12.56
2022-12-29T03:13:07.076Z,12.50
2022-12-29T03:16:02.477Z,12.50
2022-12-29T03:18:32.256Z,12.34
2022-12-29T03:21:01.514Z,12.40
2022-12-29T03:23:29.581Z,12.32
2022-12-29T03:25:59.564Z,12.39
2022-12-29T03:28:32.990Z,12.40
2022-12-29T03:31:00.909Z,12.40
2022-12-29T03:33:29.876Z,12.39
2022-12-29T03:36:01.385Z,12.38
2022-12-29T03:38:39.041Z,12.43
2022-12-29T03:41:08.383Z,12.42
2022-12-29T03:43:35.497Z,12.42
2022-12-29T03:46:02.208Z,12.40
2022-12-29T03:48:28.989Z,12.37
2022-12-29T03:50:56.619Z,12.39
2022-12-29T03:53:23.545Z,12.34
2022-12-29T03:55:50.534Z,12.32
2022-12-29T03:58:17.164Z,12.30
2022-12-29T04:01:06.367Z,12.31
2022-12-29T04:03:36.419Z,12.33
2022-12-29T04:06:03.289Z,12.32
2022-12-29T04:08:36.356Z,12.34
2022-12-29T04:11:03.023Z,12.32
2022-12-29T04:13:29.777Z,12.32
2022-12-29T04:15:56.456Z,12.19
2022-12-29T04:18:23.085Z,12.22
2022-12-29T04:21:01.961Z,12.13
2022-12-29T04:23:30.466Z,12.17
2022-12-29T04:25:57.266Z,12.13
2022-12-29T04:28:25.230Z,12.17
2022-12-29T04:31:08.650Z,12.20
2022-12-29T04:33:38.806Z,12.20
2022-12-29T04:36:07.544Z,12.16
2022-12-29T04:38:35.718Z,12.12
2022-12-29T04:41:04.367Z,12.15
2022-12-29T04:43:31.504Z,12.13
2022-12-29T04:46:16.694Z,12.08
2022-12-29T04:48:56.087Z,12.10
2022-12-29T04:51:46.942Z,12.03
2022-12-29T04:54:15.244Z,12.02
2022-12-29T04:56:44.122Z,12.07
2022-12-29T04:59:12.585Z,12.05
2022-12-29T05:01:39.426Z,12.04
2022-12-29T05:04:06.057Z,12.05
2022-12-29T05:06:32.680Z,12.08
2022-12-29T05:08:59.438Z,12.04
2022-12-29T05:11:26.186Z,11.92
2022-12-29T05:13:54.561Z,11.98
2022-12-29T05:16:22.030Z,12.02
2022-12-29T05:18:48.665Z,12.02
2022-12-29T05:21:15.473Z,12.02
2022-12-29T05:23:43.737Z,12.04
2022-12-29T05:26:10.429Z,12.11
2022-12-29T05:28:54.215Z,12.08
2022-12-29T05:31:20.932Z,12.15
2022-12-29T05:33:48.490Z,12.12
2022-12-29T05:36:15.250Z,12.16
2022-12-29T05:38:48.837Z,12.19
2022-12-29T05:41:15.526Z,12.12
2022-12-29T05:43:47.706Z,12.15
2022-12-29T05:46:29.517Z,12.16
2022-12-29T05:49:10.073Z,12.18
2022-12-29T05:51:55.074Z,12.19
2022-12-29T05:54:22.477Z,12.21
2022-12-29T05:56:49.202Z,12.19
2022-12-29T05:59:16.076Z,12.20
2022-12-29T06:01:42.928Z,12.18
2022-12-29T06:04:09.727Z,12.19
2022-12-29T06:06:36.540Z,12.15
2022-12-29T06:09:04.013Z,12.07
2022-12-29T06:11:31.509Z,12.01
2022-12-29T06:13:59.701Z,11.92
2022-12-29T06:16:26.356Z,11.93
2022-12-29T06:18:57.291Z,11.95
2022-12-29T06:21:23.975Z,11.96
2022-12-29T06:23:50.573Z,11.85
2022-12-29T06:26:17.362Z,11.95
2022-12-29T06:28:45.360Z,11.89
2022-12-29T06:31:12.257Z,11.87
2022-12-29T06:33:39.511Z,11.86
2022-12-29T06:36:06.679Z,11.88
2022-12-29T06:38:33.890Z,11.88
2022-12-29T06:41:00.588Z,11.87
2022-12-29T06:43:45.574Z,11.82
2022-12-29T06:46:21.160Z,11.84
2022-12-29T06:48:47.967Z,11.87
2022-12-29T06:51:14.540Z,11.90
2022-12-29T06:53:41.417Z,11.89
2022-12-29T06:56:08.191Z,11.91
2022-12-29T06:58:34.749Z,11.73
2022-12-29T07:01:01.409Z,11.88
2022-12-29T07:03:28.026Z,11.86
2022-12-29T07:05:55.472Z,11.88
2022-12-29T07:08:22.148Z,11.95
2022-12-29T07:10:48.751Z,11.98
2022-12-29T07:13:15.575Z,12.01
2022-12-29T07:15:42.484Z,11.99
2022-12-29T07:18:09.134Z,12.06
2022-12-29T07:20:35.765Z,12.07
2022-12-29T07:23:03.301Z,12.09
2022-12-29T07:25:30.528Z,12.09
2022-12-29T07:27:57.169Z,12.04
2022-12-29T07:30:23.736Z,11.96
2022-12-29T07:32:50.332Z,12.05
2022-12-29T07:35:16.950Z,11.97
2022-12-29T07:37:44.369Z,12.11
2022-12-29T07:40:11.664Z,12.08
2022-12-29T07:42:38.243Z,12.12
2022-12-29T07:45:08.583Z,12.15
2022-12-29T07:48:08.715Z,12.25
2022-12-29T07:50:35.714Z,12.36
2022-12-29T07:53:02.506Z,12.39
2022-12-29T07:55:29.220Z,12.38
2022-12-29T07:57:56.212Z,12.37
2022-12-29T08:00:23.065Z,12.26
2022-12-29T08:02:51.885Z,12.32
2022-12-29T08:05:18.550Z,12.40
2022-12-29T08:07:45.593Z,12.38
2022-12-29T08:10:12.503Z,12.47
2022-12-29T08:12:39.698Z,12.46
2022-12-29T08:15:06.727Z,12.47
2022-12-29T08:17:33.627Z,12.56
2022-12-29T08:20:00.191Z,12.68
2022-12-29T08:22:26.808Z,12.69
2022-12-29T08:24:53.499Z,12.81
2022-12-29T08:27:21.246Z,12.84
2022-12-29T08:29:48.269Z,12.80
2022-12-29T08:32:14.923Z,12.85
2022-12-29T08:34:41.520Z,12.88
2022-12-29T08:37:08.136Z,12.93
2022-12-29T08:39:35.307Z,13.00
2022-12-29T08:42:01.912Z,12.97
2022-12-29T08:44:28.466Z,13.09
2022-12-29T08:46:55.091Z,13.17
2022-12-29T08:49:21.734Z,13.20
2022-12-29T08:51:48.336Z,13.22
2022-12-29T08:54:14.941Z,13.22
2022-12-29T08:56:41.684Z,13.19
2022-12-29T08:59:09.028Z,13.22
2022-12-29T09:01:37.599Z,13.21
2022-12-29T09:04:14.701Z,13.29
2022-12-29T09:06:41.928Z,13.29
2022-12-29T09:09:08.587Z,13.38
2022-12-29T09:11:35.278Z,13.42
2022-12-29T09:14:01.870Z,13.50
2022-12-29T09:16:28.580Z,13.56
2022-12-29T09:18:55.267Z,13.59
2022-12-29T09:21:22.084Z,13.72
2022-12-29T09:23:49.968Z,13.77
2022-12-29T09:26:17.866Z,13.82
2022-12-29T09:28:46.116Z,13.83
2022-12-29T09:31:13.196Z,13.88
2022-12-29T09:33:40.161Z,13.82
2022-12-29T09:36:06.983Z,13.91
2022-12-29T09:38:33.595Z,13.94
2022-12-29T09:41:08.133Z,13.92
2022-12-29T09:43:37.507Z,13.90
2022-12-29T09:46:22.533Z,13.93
2022-12-29T09:48:52.039Z,13.90
2022-12-29T09:51:22.379Z,13.88
2022-12-29T09:53:54.570Z,13.96
2022-12-29T09:56:22.658Z,13.94
2022-12-29T09:59:15.107Z,14.02
2022-12-29T10:01:41.913Z,14.00
2022-12-29T10:04:08.916Z,14.19
2022-12-29T10:06:50.168Z,14.42
2022-12-29T10:09:24.923Z,14.55
2022-12-29T10:12:04.185Z,14.61
2022-12-29T10:14:33.790Z,14.69
2022-12-29T10:17:20.539Z,14.75
2022-12-29T10:19:53.172Z,14.91
2022-12-29T10:22:44.224Z,15.08
2022-12-29T10:25:17.884Z,15.22
2022-12-29T10:27:44.947Z,15.29
2022-12-29T10:30:13.545Z,15.41
2022-12-29T10:32:52.871Z,15.44
2022-12-29T10:35:23.742Z,15.46
2022-12-29T10:37:57.658Z,15.61
2022-12-29T10:40:27.554Z,15.72
2022-12-29T10:42:55.569Z,15.77
2022-12-29T10:45:24.263Z,15.85
2022-12-29T10:47:56.840Z,15.99
2022-12-29T10:50:24.210Z,16.02
2022-12-29T10:52:51.097Z,16.15
2022-12-29T10:55:24.118Z,16.30
2022-12-29T10:57:50.861Z,16.43
2022-12-29T11:00:21.369Z,16.56
2022-12-29T11:02:51.249Z,16.72
2022-12-29T11:05:25.224Z,16.85
2022-12-29T11:07:54.489Z,16.96
2022-12-29T11:10:43.781Z,17.07
2022-12-29T11:13:26.429Z,17.10
2022-12-29T11:15:53.286Z,17.23
2022-12-29T11:18:21.857Z,17.34
2022-12-29T11:20:49.267Z,17.47
2022-12-29T11:23:23.790Z,17.66
2022-12-29T11:26:10.761Z,17.78
2022-12-29T11:28:38.965Z,17.73
2022-12-29T11:31:06.737Z,17.96
2022-12-29T11:33:34.722Z,18.04
2022-12-29T11:36:16.701Z,18.16
2022-12-29T11:38:47.088Z,18.27
2022-12-29T11:41:19.738Z,18.20
2022-12-29T11:43:48.608Z,18.28
2022-12-29T11:46:21.130Z,18.34
2022-12-29T11:48:48.880Z,18.34
2022-12-29T11:51:25.261Z,18.30
2022-12-29T11:53:54.453Z,18.30
2022-12-29T11:56:35.384Z,18.29
2022-12-29T11:59:23.945Z,18.34
2022-12-29T12:01:50.676Z,18.44
2022-12-29T12:04:19.623Z,18.46
2022-12-29T12:06:55.288Z,18.42
2022-12-29T12:09:28.511Z,18.45
2022-12-29T12:11:56.128Z,18.54
2022-12-29T12:14:24.879Z,18.57
2022-12-29T12:17:39.438Z,18.64
2022-12-29T12:20:18.911Z,18.65
2022-12-29T12:23:00.869Z,18.70
2022-12-29T12:25:32.430Z,18.76
2022-12-29T12:28:09.602Z,18.67
2022-12-29T12:30:46.514Z,18.78
2022-12-29T12:33:31.975Z,18.81
2022-12-29T12:35:59.287Z,18.72
2022-12-29T12:38:28.759Z,18.76
2022-12-29T12:41:18.080Z,18.81
2022-12-29T12:43:52.779Z,18.83
2022-12-29T12:46:34.525Z,18.86
2022-12-29T12:49:10.126Z,18.92
2022-12-29T12:51:45.676Z,18.85
2022-12-29T12:54:21.652Z,18.82
2022-12-29T12:57:17.469Z,18.72
2022-12-29T12:59:44.021Z,18.78
2022-12-29T13:02:22.739Z,18.88
2022-12-29T13:04:58.499Z,18.98
2022-12-29T13:07:52.025Z,19.04
2022-12-29T13:10:40.853Z,19.16
2022-12-29T13:13:27.026Z,19.22
2022-12-29T13:16:15.262Z,19.25
2022-12-29T13:18:48.814Z,19.29
2022-12-29T13:21:24.467Z,19.34
2022-12-29T13:23:51.084Z,19.38
2022-12-29T13:26:38.296Z,19.38
2022-12-29T13:29:14.735Z,19.19
2022-12-29T13:31:44.142Z,19.20
2022-12-29T13:34:13.495Z,19.08
2022-12-29T13:36:45.166Z,19.07
2022-12-29T13:39:20.917Z,19.04
2022-12-29T13:41:52.650Z,18.92
2022-12-29T13:44:23.316Z,19.03
2022-12-29T13:46:50.362Z,18.97
2022-12-29T13:49:16.910Z,19.00
2022-12-29T13:51:51.170Z,18.98
2022-12-29T13:54:40.508Z,18.84
2022-12-29T13:57:27.835Z,18.93
2022-12-29T13:59:57.791Z,18.93
2022-12-29T14:02:43.395Z,18.94
2022-12-29T14:05:19.018Z,18.86
2022-12-29T14:07:45.798Z,18.81
2022-12-29T14:10:30.991Z,18.82
2022-12-29T14:13:08.459Z,18.76
2022-12-29T14:15:42.091Z,18.74
2022-12-29T14:18:22.610Z,18.71
2022-12-29T14:20:52.143Z,18.70
2022-12-29T14:23:28.471Z,18.68
2022-12-29T14:25:58.187Z,18.64
2022-12-29T14:28:31.641Z,18.62
2022-12-29T14:30:59.113Z,18.63
2022-12-29T14:33:27.664Z,18.56
2022-12-29T14:35:55.153Z,18.47
2022-12-29T14:38:29.247Z,18.53
2022-12-29T14:41:20.534Z,18.49
2022-12-29T14:44:16.336Z,18.53
2022-12-29T14:46:55.325Z,18.50
2022-12-29T14:49:24.343Z,18.46
2022-12-29T14:51:52.863Z,18.47
2022-12-29T14:54:34.813Z,18.42
2022-12-29T14:57:03.128Z,18.45
2022-12-29T14:59:31.079Z,18.38
2022-12-29T15:01:58.133Z,18.36
2022-12-29T15:04:36.252Z,18.30
2022-12-29T15:07:08.175Z,18.30
2022-12-29T15:09:38.195Z,18.26
2022-12-29T15:12:11.070Z,18.17
2022-12-29T15:14:49.596Z,18.17
2022-12-29T15:17:25.038Z,18.12
2022-12-29T15:19:51.781Z,18.08
2022-12-29T15:22:18.493Z,18.04
2022-12-29T15:24:45.282Z,17.96
2022-12-29T15:27:15.439Z,17.97
2022-12-29T15:29:43.367Z,18.07
2022-12-29T15:32:28.830Z,18.13
2022-12-29T15:34:56.795Z,18.17
2022-12-29T15:37:27.705Z,18.17
2022-12-29T15:39:55.308Z,18.16
2022-12-29T15:42:32.956Z,18.17
2022-12-29T15:45:10.335Z,18.09
2022-12-29T15:47:38.587Z,18.09
2022-12-29T15:50:21.308Z,18.12
2022-12-29T15:52:48.731Z,18.07
2022-12-29T15:55:27.540Z,18.14
2022-12-29T15:57:56.904Z,18.09
2022-12-29T16:00:31.583Z,18.06
2022-12-29T16:02:59.797Z,18.03
2022-12-29T16:05:32.429Z,18.00
2022-12-29T16:08:00.076Z,17.99
2022-12-29T16:10:31.401Z,17.96
2022-12-29T16:13:05.705Z,17.92
2022-12-29T16:15:32.836Z,17.89
2022-12-29T16:17:59.591Z,17.84
2022-12-29T16:20:32.724Z,17.83
2022-12-29T16:23:00.542Z,17.79
2022-12-29T16:25:32.556Z,17.78
2022-12-29T16:28:02.580Z,17.75
2022-12-29T16:30:34.377Z,17.70
2022-12-29T16:33:02.687Z,17.62
2022-12-29T16:35:44.347Z,17.60
2022-12-29T16:38:18.367Z,17.60
2022-12-29T16:40:52.585Z,17.58
2022-12-29T16:43:23.714Z,17.49
2022-12-29T16:45:53.366Z,17.49
2022-12-29T16:48:19.939Z,17.49
2022-12-29T16:50:47.616Z,17.50
2022-12-29T16:53:21.566Z,17.50
2022-12-29T16:55:50.730Z,17.48
2022-12-29T16:58:19.442Z,17.47
2022-12-29T17:00:47.098Z,17.44
2022-12-29T17:03:14.526Z,17.42
2022-12-29T17:05:41.248Z,17.40
2022-12-29T17:08:23.741Z,17.38
2022-12-29T17:11:14.077Z,17.38
2022-12-29T17:13:41.076Z,17.34
2022-12-29T17:16:08.536Z,17.33
2022-12-29T17:18:35.530Z,17.32
2022-12-29T17:21:02.264Z,17.30
2022-12-29T17:23:30.856Z,17.29
2022-12-29T17:25:57.696Z,17.28
2022-12-29T17:28:28.571Z,17.26
2022-12-29T17:30:56.778Z,17.24
2022-12-29T17:33:23.508Z,17.18
2022-12-29T17:35:55.142Z,17.24
2022-12-29T17:38:25.953Z,17.22
2022-12-29T17:40:52.642Z,17.21
2022-12-29T17:43:20.108Z,17.23
2022-12-29T17:45:52.886Z,17.24
2022-12-29T17:48:19.681Z,17.22
2022-12-29T17:50:47.704Z,17.22
2022-12-29T17:53:15.846Z,17.22
2022-12-29T17:55:42.677Z,17.17
2022-12-29T17:58:17.731Z,17.15
2022-12-29T18:00:44.911Z,17.13
2022-12-29T18:03:19.094Z,17.13
2022-12-29T18:05:45.995Z,17.12
2022-12-29T18:08:12.670Z,17.13
2022-12-29T18:10:40.032Z,17.12
2022-12-29T18:13:07.216Z,17.08
2022-12-29T18:15:35.374Z,17.04
2022-12-29T18:18:15.239Z,17.08
2022-12-29T18:20:43.218Z,17.09
2022-12-29T18:23:19.637Z,17.08
2022-12-29T18:25:49.500Z,17.02
2022-12-29T18:28:16.136Z,17.05
2022-12-29T18:30:42.860Z,17.05
2022-12-29T18:33:21.046Z,17.02
2022-12-29T18:35:59.484Z,16.95
2022-12-29T18:38:26.261Z,16.98
2022-12-29T18:40:53.426Z,16.98
2022-12-29T18:43:20.274Z,16.98
2022-12-29T18:45:47.131Z,16.94
2022-12-29T18:48:14.407Z,16.93
2022-12-29T18:50:41.182Z,16.92
2022-12-29T18:53:15.132Z,16.86
2022-12-29T18:55:41.708Z,16.82
2022-12-29T18:58:08.351Z,16.83
2022-12-29T19:00:34.987Z,16.79
2022-12-29T19:03:01.653Z,16.77
2022-12-29T19:05:29.723Z,16.79
2022-12-29T19:07:56.357Z,16.75
2022-12-29T19:10:24.435Z,16.78
2022-12-29T19:12:51.715Z,16.65
2022-12-29T19:15:23.998Z,16.67
2022-12-29T19:18:16.239Z,16.71
2022-12-29T19:20:42.067Z,16.70
2022-12-29T19:23:12.948Z,16.73
2022-12-29T19:25:40.074Z,16.71
2022-12-29T19:28:07.627Z,16.72
2022-12-29T19:30:35.401Z,16.73
2022-12-29T19:33:09.619Z,16.72
2022-12-29T19:35:36.901Z,16.67
2022-12-29T19:38:03.463Z,16.63
2022-12-29T19:40:30.165Z,16.63
2022-12-29T19:42:57.203Z,16.64
2022-12-29T19:45:23.897Z,16.62
2022-12-29T19:47:50.546Z,16.61
2022-12-29T19:50:17.544Z,16.60
2022-12-29T19:52:44.546Z,16.58
2022-12-29T19:55:13.817Z,16.50
2022-12-29T19:57:40.384Z,16.42
2022-12-29T20:00:07.381Z,16.45
2022-12-29T20:02:38.876Z,16.44
2022-12-29T20:05:05.765Z,16.45
2022-12-29T20:07:32.655Z,16.45
2022-12-29T20:09:59.297Z,16.41
2022-12-29T20:12:29.291Z,16.42
2022-12-29T20:14:56.758Z,16.41
2022-12-29T20:17:45.664Z,16.39
2022-12-29T20:20:10.187Z,16.21
2022-12-29T20:22:37.019Z,16.21
2022-12-29T20:25:43.053Z,16.16
2022-12-29T20:27:50.718Z,16.07
2022-12-29T20:30:17.972Z,16.06
2022-12-29T20:32:44.594Z,15.99
2022-12-29T20:35:12.031Z,16.06
2022-12-29T20:37:38.591Z,16.09
2022-12-29T20:40:05.415Z,16.10
2022-12-29T20:42:32.043Z,16.03
2022-12-29T20:44:58.606Z,15.94
2022-12-29T20:47:25.188Z,15.95
2022-12-29T20:49:51.722Z,16.06
2022-12-29T20:52:19.292Z,16.08
2022-12-29T20:54:45.820Z,16.07
2022-12-29T20:57:12.481Z,16.13
2022-12-29T20:59:39.026Z,16.12
2022-12-29T21:02:06.616Z,16.06
2022-12-29T21:04:57.623Z,16.05
2022-12-29T21:07:20.557Z,16.05
2022-12-29T21:09:47.323Z,15.98
2022-12-29T21:12:14.910Z,15.98
2022-12-29T21:14:45.598Z,15.97
2022-12-29T21:17:12.825Z,16.02
2022-12-29T21:19:39.514Z,16.02
2022-12-29T21:22:06.155Z,16.01
2022-12-29T21:24:32.873Z,16.02
2022-12-29T21:26:59.437Z,16.02
2022-12-29T21:29:29.680Z,16.02
2022-12-29T21:31:57.748Z,16.08
2022-12-29T21:34:27.630Z,16.07
2022-12-29T21:36:54.240Z,15.93
2022-12-29T21:39:20.882Z,15.99
2022-12-29T21:41:47.589Z,15.96
2022-12-29T21:44:32.873Z,15.81
2022-12-29T21:46:59.545Z,15.87
2022-12-29T21:49:27.883Z,15.86
2022-12-29T21:51:54.963Z,15.76
2022-12-29T21:54:42.118Z,15.75
2022-12-29T21:57:09.636Z,15.70
2022-12-29T21:59:54.854Z,15.75
2022-12-29T22:02:45.070Z,15.79
2022-12-29T22:05:31.878Z,15.78
2022-12-29T22:08:17.644Z,15.81
2022-12-29T22:11:04.028Z,15.76
2022-12-29T22:13:31.961Z,15.76
2022-12-29T22:15:58.550Z,15.81
2022-12-29T22:18:25.196Z,15.82
2022-12-29T22:20:51.810Z,15.88
2022-12-29T22:23:18.413Z,15.89
2022-12-29T22:25:46.583Z,15.94
2022-12-29T22:28:13.230Z,15.96
2022-12-29T22:30:39.858Z,15.96
2022-12-29T22:33:07.430Z,15.92
2022-12-29T22:35:33.980Z,15.98
2022-12-29T22:38:00.603Z,15.95
2022-12-29T22:40:27.361Z,15.89
2022-12-29T22:42:53.999Z,15.98
2022-12-29T22:45:20.575Z,15.89
2022-12-29T22:47:47.216Z,15.93
2022-12-29T22:50:13.839Z,15.88
2022-12-29T22:52:40.438Z,15.75
2022-12-29T22:55:08.498Z,15.77
2022-12-29T22:57:35.538Z,15.77
2022-12-29T23:00:02.552Z,15.71
2022-12-29T23:02:30.471Z,15.76
2022-12-29T23:05:05.317Z,15.83
2022-12-29T23:07:33.781Z,15.77
2022-12-29T23:10:00.363Z,15.73
2022-12-29T23:12:29.440Z,15.81
2022-12-29T23:14:56.050Z,15.80
2022-12-29T23:17:22.858Z,15.83
2022-12-29T23:19:49.487Z,15.88
2022-12-29T23:22:16.117Z,15.86
2022-12-29T23:24:42.770Z,15.89
2022-12-29T23:27:09.372Z,15.90
2022-12-29T23:29:36.025Z,15.90
2022-12-29T23:32:02.637Z,15.92
2022-12-29T23:34:29.248Z,15.93
2022-12-29T23:36:55.804Z,15.90
2022-12-29T23:39:25.997Z,15.89
2022-12-29T23:41:52.734Z,15.93
2022-12-29T23:44:19.393Z,15.85
2022-12-29T23:46:46.107Z,15.81
2022-12-29T23:49:12.767Z,15.85
2022-12-29T23:51:39.444Z,15.80
2022-12-29T23:54:06.067Z,15.77
2022-12-29T23:56:33.148Z,15.81
2022-12-29T23:58:59.729Z,15.76
